Columbus, Ohio
Traffic Map
Current Weather Conditions
Columbus, Ohio
Few Clouds
Few Clouds
51°
Feels Like: 51°
Wind Chill: 51° Ceiling: Unl
Heat Index: 51° Visibility: 10mi
Dew Point: 39° Wind: 10mph
Humidity: 63% Direction: 30° (NNE)
Pressure: 30.34in Gusts: 17mph
Raw Report DataKCMH 191251Z 03009G15KT 10SM FEW250 11/04 A3034 RMK AO2 SLP276 T01060039
Traffic Incident Summary
Active as of:
Severity:
Category:
InformationThere was an issue retrieving the traffic information for this location. Please try a different location or try again shortly.
Advertisements
At Last! Intellicast now available for iPhone and Android